sensor_id;sensor_type;location;lat;lon;timestamp;P1;durP1;ratioP1;P2;durP2;ratioP2
78824;SDS011;68176;45.554;10.220;2023-08-06T01:19:20;1.17;;;0.47;;
78824;SDS011;68176;45.554;10.220;2023-08-06T04:29:31;0.60;;;0.20;;
78824;SDS011;68176;45.554;10.220;2023-08-06T04:34:26;1.17;;;0.30;;
78824;SDS011;68176;45.554;10.220;2023-08-06T04:36:56;1.30;;;0.32;;
78824;SDS011;68176;45.554;10.220;2023-08-06T05:34:32;1.17;;;0.63;;
78824;SDS011;68176;45.554;10.220;2023-08-06T05:58:45;1.90;;;0.87;;
78824;SDS011;68176;45.554;10.220;2023-08-06T06:01:15;0.55;;;0.20;;
78824;SDS011;68176;45.554;10.220;2023-08-06T06:19:34;0.88;;;0.25;;
78824;SDS011;68176;45.554;10.220;2023-08-06T06:24:28;0.52;;;0.20;;
78824;SDS011;68176;45.554;10.220;2023-08-06T06:26:59;0.85;;;0.30;;
78824;SDS011;68176;45.554;10.220;2023-08-06T06:29:29;0.82;;;0.35;;
78824;SDS011;68176;45.554;10.220;2023-08-06T06:31:59;1.48;;;0.52;;
78824;SDS011;68176;45.554;10.220;2023-08-06T06:57:42;3.53;;;1.30;;
78824;SDS011;68176;45.554;10.220;2023-08-06T07:00:09;4.80;;;3.60;;
78824;SDS011;68176;45.554;10.220;2023-08-06T07:02:36;1.88;;;0.93;;
78824;SDS011;68176;45.554;10.220;2023-08-06T07:05:06;3.60;;;1.10;;
78824;SDS011;68176;45.554;10.220;2023-08-06T07:07:36;2.92;;;1.40;;
78824;SDS011;68176;45.554;10.220;2023-08-06T07:10:09;8.05;;;1.73;;
78824;SDS011;68176;45.554;10.220;2023-08-06T07:26:35;1.52;;;0.65;;
78824;SDS011;68176;45.554;10.220;2023-08-06T07:29:31;2.20;;;0.70;;
78824;SDS011;68176;45.554;10.220;2023-08-06T07:32:12;1.53;;;0.50;;
78824;SDS011;68176;45.554;10.220;2023-08-06T07:45:54;6.23;;;1.67;;
78824;SDS011;68176;45.554;10.220;2023-08-06T07:48:25;5.85;;;1.80;;
78824;SDS011;68176;45.554;10.220;2023-08-06T07:50:51;4.40;;;1.55;;
78824;SDS011;68176;45.554;10.220;2023-08-06T07:53:19;2.20;;;1.20;;
78824;SDS011;68176;45.554;10.220;2023-08-06T07:55:51;4.55;;;1.75;;
78824;SDS011;68176;45.554;10.220;2023-08-06T08:01:26;5.93;;;2.25;;
78824;SDS011;68176;45.554;10.220;2023-08-06T08:03:52;2.70;;;2.40;;
78824;SDS011;68176;45.554;10.220;2023-08-06T08:06:23;2.72;;;1.67;;
78824;SDS011;68176;45.554;10.220;2023-08-06T08:08:57;3.70;;;1.90;;
78824;SDS011;68176;45.554;10.220;2023-08-06T08:11:22;6.70;;;3.15;;
78824;SDS011;68176;45.554;10.220;2023-08-06T08:13:50;4.55;;;2.10;;
78824;SDS011;68176;45.554;10.220;2023-08-06T08:16:21;6.25;;;2.20;;
78824;SDS011;68176;45.554;10.220;2023-08-06T08:19:09;2.78;;;1.73;;
78824;SDS011;68176;45.554;10.220;2023-08-06T08:39:32;2.85;;;1.65;;
78824;SDS011;68176;45.554;10.220;2023-08-06T08:45:20;3.10;;;1.57;;
78824;SDS011;68176;45.554;10.220;2023-08-06T08:53:02;4.37;;;1.47;;
78824;SDS011;68176;45.554;10.220;2023-08-06T08:55:43;2.22;;;1.50;;
78824;SDS011;68176;45.554;10.220;2023-08-06T09:01:14;2.42;;;1.40;;
78824;SDS011;68176;45.554;10.220;2023-08-06T09:04:24;3.42;;;1.77;;
78824;SDS011;68176;45.554;10.220;2023-08-06T09:07:11;3.75;;;1.65;;
78824;SDS011;68176;45.554;10.220;2023-08-06T09:09:47;2.70;;;1.83;;
78824;SDS011;68176;45.554;10.220;2023-08-06T09:12:42;1.95;;;1.25;;
78824;SDS011;68176;45.554;10.220;2023-08-06T09:15:10;2.10;;;1.30;;
78824;SDS011;68176;45.554;10.220;2023-08-06T09:17:36;2.33;;;1.75;;
78824;SDS011;68176;45.554;10.220;2023-08-06T09:26:22;2.43;;;1.37;;
78824;SDS011;68176;45.554;10.220;2023-08-06T09:29:26;3.45;;;1.30;;
78824;SDS011;68176;45.554;10.220;2023-08-06T09:32:12;2.95;;;0.88;;
78824;SDS011;68176;45.554;10.220;2023-08-06T09:34:41;1.20;;;0.68;;
78824;SDS011;68176;45.554;10.220;2023-08-06T09:37:08;3.40;;;1.70;;
78824;SDS011;68176;45.554;10.220;2023-08-06T09:39:35;1.95;;;1.15;;
78824;SDS011;68176;45.554;10.220;2023-08-06T09:42:08;2.70;;;1.15;;
78824;SDS011;68176;45.554;10.220;2023-08-06T09:44:35;2.10;;;1.05;;
78824;SDS011;68176;45.554;10.220;2023-08-06T09:47:05;2.42;;;1.33;;
78824;SDS011;68176;45.554;10.220;2023-08-06T09:52:05;4.05;;;1.67;;
78824;SDS011;68176;45.554;10.220;2023-08-06T09:54:35;2.55;;;1.50;;
78824;SDS011;68176;45.554;10.220;2023-08-06T09:57:05;4.95;;;1.25;;
78824;SDS011;68176;45.554;10.220;2023-08-06T09:59:38;1.98;;;0.90;;
78824;SDS011;68176;45.554;10.220;2023-08-06T10:02:07;1.85;;;0.63;;
78824;SDS011;68176;45.554;10.220;2023-08-06T10:04:39;1.80;;;0.90;;
78824;SDS011;68176;45.554;10.220;2023-08-06T10:07:05;1.98;;;1.05;;
78824;SDS011;68176;45.554;10.220;2023-08-06T10:12:26;1.67;;;0.82;;
78824;SDS011;68176;45.554;10.220;2023-08-06T10:17:22;0.60;;;0.20;;
78824;SDS011;68176;45.554;10.220;2023-08-06T10:19:49;1.70;;;0.52;;
78824;SDS011;68176;45.554;10.220;2023-08-06T10:22:19;4.82;;;1.08;;
78824;SDS011;68176;45.554;10.220;2023-08-06T10:24:56;1.48;;;0.70;;
78824;SDS011;68176;45.554;10.220;2023-08-06T10:30:42;2.87;;;1.00;;
78824;SDS011;68176;45.554;10.220;2023-08-06T10:32:56;2.80;;;0.52;;
78824;SDS011;68176;45.554;10.220;2023-08-06T10:38:18;1.10;;;0.80;;
78824;SDS011;68176;45.554;10.220;2023-08-06T10:40:49;1.38;;;0.32;;
78824;SDS011;68176;45.554;10.220;2023-08-06T10:43:27;2.67;;;0.80;;
78824;SDS011;68176;45.554;10.220;2023-08-06T10:46:01;2.33;;;0.95;;
78824;SDS011;68176;45.554;10.220;2023-08-06T10:48:40;1.92;;;0.65;;
78824;SDS011;68176;45.554;10.220;2023-08-06T10:53:41;2.00;;;0.83;;
78824;SDS011;68176;45.554;10.220;2023-08-06T10:56:17;0.93;;;0.43;;
78824;SDS011;68176;45.554;10.220;2023-08-06T11:01:10;1.70;;;0.90;;
78824;SDS011;68176;45.554;10.220;2023-08-06T11:03:38;1.75;;;0.70;;
78824;SDS011;68176;45.554;10.220;2023-08-06T11:06:09;2.45;;;0.75;;
78824;SDS011;68176;45.554;10.220;2023-08-06T11:08:40;1.65;;;0.70;;
78824;SDS011;68176;45.554;10.220;2023-08-06T11:11:13;1.30;;;0.20;;
78824;SDS011;68176;45.554;10.220;2023-08-06T11:13:40;2.55;;;0.80;;
78824;SDS011;68176;45.554;10.220;2023-08-06T11:16:08;1.67;;;0.70;;
78824;SDS011;68176;45.554;10.220;2023-08-06T11:18:39;1.80;;;0.60;;
78824;SDS011;68176;45.554;10.220;2023-08-06T11:21:08;2.97;;;0.57;;
78824;SDS011;68176;45.554;10.220;2023-08-06T11:23:38;1.55;;;0.50;;
78824;SDS011;68176;45.554;10.220;2023-08-06T11:26:11;1.65;;;0.50;;
78824;SDS011;68176;45.554;10.220;2023-08-06T11:28:41;1.33;;;0.40;;
78824;SDS011;68176;45.554;10.220;2023-08-06T11:31:17;3.05;;;0.28;;
78824;SDS011;68176;45.554;10.220;2023-08-06T11:33:50;1.20;;;0.37;;
78824;SDS011;68176;45.554;10.220;2023-08-06T11:36:32;1.93;;;0.80;;
78824;SDS011;68176;45.554;10.220;2023-08-06T11:39:16;1.10;;;0.35;;
78824;SDS011;68176;45.554;10.220;2023-08-06T11:41:45;0.88;;;0.30;;
78824;SDS011;68176;45.554;10.220;2023-08-06T11:44:11;1.17;;;0.37;;
78824;SDS011;68176;45.554;10.220;2023-08-06T11:46:54;0.80;;;0.20;;
78824;SDS011;68176;45.554;10.220;2023-08-06T11:52:10;1.67;;;0.38;;
78824;SDS011;68176;45.554;10.220;2023-08-06T11:54:38;1.20;;;0.20;;
78824;SDS011;68176;45.554;10.220;2023-08-06T11:57:07;1.15;;;0.25;;
78824;SDS011;68176;45.554;10.220;2023-08-06T11:59:33;1.52;;;0.40;;
78824;SDS011;68176;45.554;10.220;2023-08-06T12:02:11;2.08;;;0.30;;
78824;SDS011;68176;45.554;10.220;2023-08-06T12:07:47;1.20;;;0.63;;
78824;SDS011;68176;45.554;10.220;2023-08-06T12:10:16;1.55;;;0.57;;
78824;SDS011;68176;45.554;10.220;2023-08-06T12:12:42;0.40;;;0.15;;
78824;SDS011;68176;45.554;10.220;2023-08-06T12:15:10;1.77;;;0.38;;
78824;SDS011;68176;45.554;10.220;2023-08-06T12:17:40;1.20;;;0.45;;
78824;SDS011;68176;45.554;10.220;2023-08-06T12:20:10;1.83;;;0.47;;
78824;SDS011;68176;45.554;10.220;2023-08-06T12:22:40;1.45;;;0.30;;
78824;SDS011;68176;45.554;10.220;2023-08-06T12:25:12;2.50;;;0.38;;
78824;SDS011;68176;45.554;10.220;2023-08-06T12:27:40;1.85;;;0.68;;
78824;SDS011;68176;45.554;10.220;2023-08-06T12:30:10;3.40;;;0.30;;
78824;SDS011;68176;45.554;10.220;2023-08-06T12:32:40;1.52;;;0.50;;
78824;SDS011;68176;45.554;10.220;2023-08-06T12:35:10;3.70;;;0.47;;
78824;SDS011;68176;45.554;10.220;2023-08-06T12:37:40;1.27;;;0.45;;
78824;SDS011;68176;45.554;10.220;2023-08-06T12:40:16;1.67;;;0.47;;
78824;SDS011;68176;45.554;10.220;2023-08-06T12:43:17;0.50;;;0.22;;
78824;SDS011;68176;45.554;10.220;2023-08-06T12:45:42;3.37;;;0.43;;
78824;SDS011;68176;45.554;10.220;2023-08-06T12:48:08;5.20;;;0.30;;
78824;SDS011;68176;45.554;10.220;2023-08-06T12:50:39;2.72;;;0.45;;
78824;SDS011;68176;45.554;10.220;2023-08-06T12:53:34;1.05;;;0.30;;
78824;SDS011;68176;45.554;10.220;2023-08-06T12:56:00;0.00;;;0.00;;
78824;SDS011;68176;45.554;10.220;2023-08-06T12:58:28;0.73;;;0.20;;
78824;SDS011;68176;45.554;10.220;2023-08-06T13:00:58;1.17;;;0.25;;
78824;SDS011;68176;45.554;10.220;2023-08-06T13:03:28;1.25;;;0.30;;
78824;SDS011;68176;45.554;10.220;2023-08-06T13:06:01;0.52;;;0.15;;
78824;SDS011;68176;45.554;10.220;2023-08-06T13:08:28;0.73;;;0.30;;
78824;SDS011;68176;45.554;10.220;2023-08-06T13:10:58;1.35;;;0.40;;
78824;SDS011;68176;45.554;10.220;2023-08-06T13:13:28;4.88;;;0.52;;
78824;SDS011;68176;45.554;10.220;2023-08-06T13:16:04;1.50;;;0.40;;
78824;SDS011;68176;45.554;10.220;2023-08-06T13:18:30;0.00;;;0.00;;
78824;SDS011;68176;45.554;10.220;2023-08-06T13:20:58;0.63;;;0.25;;
78824;SDS011;68176;45.554;10.220;2023-08-06T13:23:34;0.93;;;0.32;;
78824;SDS011;68176;45.554;10.220;2023-08-06T13:26:09;1.60;;;0.35;;
78824;SDS011;68176;45.554;10.220;2023-08-06T13:28:35;0.00;;;0.00;;
78824;SDS011;68176;45.554;10.220;2023-08-06T13:31:03;1.25;;;0.40;;
78824;SDS011;68176;45.554;10.220;2023-08-06T13:33:33;1.30;;;0.35;;
78824;SDS011;68176;45.554;10.220;2023-08-06T13:36:03;1.90;;;0.40;;
78824;SDS011;68176;45.554;10.220;2023-08-06T13:38:33;0.68;;;0.32;;
78824;SDS011;68176;45.554;10.220;2023-08-06T13:41:03;1.17;;;0.35;;
78824;SDS011;68176;45.554;10.220;2023-08-06T13:43:33;1.73;;;0.40;;
78824;SDS011;68176;45.554;10.220;2023-08-06T13:46:03;2.05;;;0.30;;
78824;SDS011;68176;45.554;10.220;2023-08-06T13:48:33;4.15;;;0.20;;
78824;SDS011;68176;45.554;10.220;2023-08-06T13:51:03;0.90;;;0.25;;
78824;SDS011;68176;45.554;10.220;2023-08-06T13:53:33;0.80;;;0.28;;
78824;SDS011;68176;45.554;10.220;2023-08-06T13:56:04;1.15;;;0.20;;
78824;SDS011;68176;45.554;10.220;2023-08-06T13:58:33;1.25;;;0.20;;
78824;SDS011;68176;45.554;10.220;2023-08-06T14:01:04;0.35;;;0.10;;
78824;SDS011;68176;45.554;10.220;2023-08-06T14:03:40;0.90;;;0.40;;
78824;SDS011;68176;45.554;10.220;2023-08-06T14:06:05;0.00;;;0.00;;
78824;SDS011;68176;45.554;10.220;2023-08-06T14:08:33;1.05;;;0.38;;
78824;SDS011;68176;45.554;10.220;2023-08-06T14:11:04;1.02;;;0.22;;
78824;SDS011;68176;45.554;10.220;2023-08-06T14:13:33;2.00;;;0.60;;
78824;SDS011;68176;45.554;10.220;2023-08-06T14:19:06;1.63;;;0.20;;
78824;SDS011;68176;45.554;10.220;2023-08-06T14:21:32;1.50;;;0.30;;
78824;SDS011;68176;45.554;10.220;2023-08-06T14:24:06;0.75;;;0.20;;
78824;SDS011;68176;45.554;10.220;2023-08-06T14:26:32;0.00;;;0.00;;
78824;SDS011;68176;45.554;10.220;2023-08-06T14:29:03;0.90;;;0.15;;
78824;SDS011;68176;45.554;10.220;2023-08-06T14:31:38;0.77;;;0.15;;
78824;SDS011;68176;45.554;10.220;2023-08-06T14:34:07;1.27;;;0.10;;
78824;SDS011;68176;45.554;10.220;2023-08-06T14:36:32;0.70;;;0.20;;
78824;SDS011;68176;45.554;10.220;2023-08-06T14:39:02;0.98;;;0.13;;
78824;SDS011;68176;45.554;10.220;2023-08-06T14:41:35;2.03;;;0.20;;
78824;SDS011;68176;45.554;10.220;2023-08-06T14:44:05;0.57;;;0.10;;
78824;SDS011;68176;45.554;10.220;2023-08-06T14:46:32;1.07;;;0.37;;
78824;SDS011;68176;45.554;10.220;2023-08-06T14:49:02;0.95;;;0.30;;
78824;SDS011;68176;45.554;10.220;2023-08-06T14:51:32;0.43;;;0.13;;
78824;SDS011;68176;45.554;10.220;2023-08-06T14:54:02;0.40;;;0.13;;
78824;SDS011;68176;45.554;10.220;2023-08-06T14:56:35;0.80;;;0.20;;
78824;SDS011;68176;45.554;10.220;2023-08-06T14:59:08;0.73;;;0.20;;
78824;SDS011;68176;45.554;10.220;2023-08-06T15:01:34;0.00;;;0.00;;
78824;SDS011;68176;45.554;10.220;2023-08-06T15:06:56;1.08;;;0.22;;
78824;SDS011;68176;45.554;10.220;2023-08-06T15:09:21;0.40;;;0.10;;
78824;SDS011;68176;45.554;10.220;2023-08-06T15:11:53;0.75;;;0.10;;
78824;SDS011;68176;45.554;10.220;2023-08-06T15:14:26;0.22;;;0.05;;
78824;SDS011;68176;45.554;10.220;2023-08-06T15:56:01;0.03;;;0.00;;
78824;SDS011;68176;45.554;10.220;2023-08-06T16:11:10;0.33;;;0.07;;
78824;SDS011;68176;45.554;10.220;2023-08-06T16:39:39;0.28;;;0.03;;
78824;SDS011;68176;45.554;10.220;2023-08-06T17:13:39;1.52;;;0.13;;
78824;SDS011;68176;45.554;10.220;2023-08-06T17:22:44;0.80;;;0.10;;
78824;SDS011;68176;45.554;10.220;2023-08-06T17:29:05;0.03;;;0.00;;
78824;SDS011;68176;45.554;10.220;2023-08-06T17:32:22;0.63;;;0.17;;
78824;SDS011;68176;45.554;10.220;2023-08-06T17:34:51;0.82;;;0.08;;
78824;SDS011;68176;45.554;10.220;2023-08-06T17:44:33;0.03;;;0.00;;
78824;SDS011;68176;45.554;10.220;2023-08-06T17:47:04;0.50;;;0.10;;
78824;SDS011;68176;45.554;10.220;2023-08-06T17:49:33;0.43;;;0.07;;
78824;SDS011;68176;45.554;10.220;2023-08-06T17:59:16;0.55;;;0.05;;
78824;SDS011;68176;45.554;10.220;2023-08-06T18:01:41;0.00;;;0.00;;
78824;SDS011;68176;45.554;10.220;2023-08-06T18:07:34;0.13;;;0.00;;
78824;SDS011;68176;45.554;10.220;2023-08-06T18:17:34;0.05;;;0.00;;
78824;SDS011;68176;45.554;10.220;2023-08-06T18:30:35;0.15;;;0.08;;
78824;SDS011;68176;45.554;10.220;2023-08-06T18:33:10;0.40;;;0.10;;
78824;SDS011;68176;45.554;10.220;2023-08-06T19:16:42;0.22;;;0.03;;
78824;SDS011;68176;45.554;10.220;2023-08-06T19:19:17;0.20;;;0.05;;
78824;SDS011;68176;45.554;10.220;2023-08-06T19:21:49;0.30;;;0.10;;
78824;SDS011;68176;45.554;10.220;2023-08-06T19:39:09;0.60;;;0.10;;
78824;SDS011;68176;45.554;10.220;2023-08-06T19:41:35;0.80;;;0.05;;
78824;SDS011;68176;45.554;10.220;2023-08-06T20:03:50;0.00;;;0.00;;
78824;SDS011;68176;45.554;10.220;2023-08-06T20:06:18;0.17;;;0.00;;
78824;SDS011;68176;45.554;10.220;2023-08-06T20:18:56;1.53;;;0.20;;
78824;SDS011;68176;45.554;10.220;2023-08-06T20:21:22;0.55;;;0.20;;
78824;SDS011;68176;45.554;10.220;2023-08-06T20:31:04;0.50;;;0.13;;
78824;SDS011;68176;45.554;10.220;2023-08-06T20:34:14;0.67;;;0.10;;
78824;SDS011;68176;45.554;10.220;2023-08-06T20:47:47;0.82;;;0.10;;
78824;SDS011;68176;45.554;10.220;2023-08-06T20:54:15;0.22;;;0.00;;
78824;SDS011;68176;45.554;10.220;2023-08-06T21:03:11;0.85;;;0.10;;
78824;SDS011;68176;45.554;10.220;2023-08-06T21:44:41;0.33;;;0.00;;
78824;SDS011;68176;45.554;10.220;2023-08-06T22:27:28;0.70;;;0.13;;
78824;SDS011;68176;45.554;10.220;2023-08-06T22:50:05;0.75;;;0.10;;
78824;SDS011;68176;45.554;10.220;2023-08-06T22:53:18;0.22;;;0.08;;
78824;SDS011;68176;45.554;10.220;2023-08-06T23:14:57;0.68;;;0.10;;
